sensor_id;sensor_type;location;lat;lon;timestamp;pressure;altitude;pressure_sealevel;temperature;humidity
70343;BME280;57767;42.068;24.752;2024-01-15T00:00:17;98448.75;;;-1.73;73.84
70343;BME280;57767;42.068;24.752;2024-01-15T00:01:19;98454.19;;;-1.67;73.60
70343;BME280;57767;42.068;24.752;2024-01-15T00:02:21;98441.38;;;-1.68;73.69
70343;BME280;57767;42.068;24.752;2024-01-15T00:03:22;98452.41;;;-1.66;73.84
70343;BME280;57767;42.068;24.752;2024-01-15T00:04:24;98443.53;;;-1.64;73.72
70343;BME280;57767;42.068;24.752;2024-01-15T00:05:26;98450.78;;;-1.67;73.82
70343;BME280;57767;42.068;24.752;2024-01-15T00:06:27;98442.47;;;-1.71;73.89
70343;BME280;57767;42.068;24.752;2024-01-15T00:07:30;98437.72;;;-1.75;73.36
70343;BME280;57767;42.068;24.752;2024-01-15T00:08:31;98443.28;;;-1.70;73.47
70343;BME280;57767;42.068;24.752;2024-01-15T00:09:33;98446.84;;;-1.71;73.80
70343;BME280;57767;42.068;24.752;2024-01-15T00:10:35;98440.56;;;-1.69;74.46
70343;BME280;57767;42.068;24.752;2024-01-15T00:11:36;98445.19;;;-1.72;74.15
70343;BME280;57767;42.068;24.752;2024-01-15T00:12:38;98443.28;;;-1.70;74.13
70343;BME280;57767;42.068;24.752;2024-01-15T00:13:40;98448.19;;;-1.67;74.11
70343;BME280;57767;42.068;24.752;2024-01-15T00:14:41;98439.22;;;-1.73;74.16
70343;BME280;57767;42.068;24.752;2024-01-15T00:15:43;98437.56;;;-1.74;74.48
70343;BME280;57767;42.068;24.752;2024-01-15T00:16:46;98448.47;;;-1.70;74.34
70343;BME280;57767;42.068;24.752;2024-01-15T00:17:47;98444.38;;;-1.73;74.18
70343;BME280;57767;42.068;24.752;2024-01-15T00:18:49;98436.47;;;-1.71;74.41
70343;BME280;57767;42.068;24.752;2024-01-15T00:19:51;98438.94;;;-1.70;73.93
70343;BME280;57767;42.068;24.752;2024-01-15T00:20:53;98444.78;;;-1.68;73.98
70343;BME280;57767;42.068;24.752;2024-01-15T00:21:55;98435.25;;;-1.67;73.69
70343;BME280;57767;42.068;24.752;2024-01-15T00:22:56;98434.44;;;-1.68;73.20
70343;BME280;57767;42.068;24.752;2024-01-15T00:23:58;98431.97;;;-1.69;72.71
70343;BME280;57767;42.068;24.752;2024-01-15T00:25:00;98434.56;;;-1.69;72.18
70343;BME280;57767;42.068;24.752;2024-01-15T00:26:01;98437.31;;;-1.71;72.38
70343;BME280;57767;42.068;24.752;2024-01-15T00:27:03;98433.63;;;-1.68;73.03
70343;BME280;57767;42.068;24.752;2024-01-15T00:28:05;98437.84;;;-1.67;73.07
70343;BME280;57767;42.068;24.752;2024-01-15T00:29:07;98426.13;;;-1.71;73.51
70343;BME280;57767;42.068;24.752;2024-01-15T00:30:10;98414.41;;;-1.75;74.32
70343;BME280;57767;42.068;24.752;2024-01-15T00:31:11;98429.16;;;-1.86;74.44
70343;BME280;57767;42.068;24.752;2024-01-15T00:32:13;98430.97;;;-1.96;75.31
70343;BME280;57767;42.068;24.752;2024-01-15T00:33:15;98428.25;;;-2.04;75.66
70343;BME280;57767;42.068;24.752;2024-01-15T00:34:17;98429.59;;;-2.00;75.48
70343;BME280;57767;42.068;24.752;2024-01-15T00:35:18;98434.09;;;-1.92;75.12
70343;BME280;57767;42.068;24.752;2024-01-15T00:36:20;98428.91;;;-1.92;74.93
70343;BME280;57767;42.068;24.752;2024-01-15T00:37:21;98421.44;;;-1.95;75.16
70343;BME280;57767;42.068;24.752;2024-01-15T00:38:23;98423.59;;;-2.00;75.06
70343;BME280;57767;42.068;24.752;2024-01-15T00:39:25;98427.81;;;-1.99;75.12
70343;BME280;57767;42.068;24.752;2024-01-15T00:40:27;98425.09;;;-1.98;74.85
70343;BME280;57767;42.068;24.752;2024-01-15T00:41:29;98421.56;;;-1.97;75.31
70343;BME280;57767;42.068;24.752;2024-01-15T00:42:30;98429.19;;;-1.95;75.22
70343;BME280;57767;42.068;24.752;2024-01-15T00:43:32;98420.75;;;-1.97;75.20
70343;BME280;57767;42.068;24.752;2024-01-15T00:44:34;98421.84;;;-2.00;74.84
70343;BME280;57767;42.068;24.752;2024-01-15T00:45:35;98410.41;;;-2.07;74.95
70343;BME280;57767;42.068;24.752;2024-01-15T00:46:44;98422.78;;;-2.01;75.17
70343;BME280;57767;42.068;24.752;2024-01-15T00:47:47;98421.69;;;-1.98;75.11
70343;BME280;57767;42.068;24.752;2024-01-15T00:48:48;98423.75;;;-2.11;75.28
70343;BME280;57767;42.068;24.752;2024-01-15T00:49:50;98408.25;;;-2.21;75.71
70343;BME280;57767;42.068;24.752;2024-01-15T00:50:52;98410.56;;;-2.28;76.25
70343;BME280;57767;42.068;24.752;2024-01-15T00:51:55;98412.06;;;-2.25;76.29
70343;BME280;57767;42.068;24.752;2024-01-15T00:52:57;98418.34;;;-2.18;76.64
70343;BME280;57767;42.068;24.752;2024-01-15T00:53:58;98416.97;;;-2.22;76.39
70343;BME280;57767;42.068;24.752;2024-01-15T00:55:00;98402.81;;;-2.37;77.13
70343;BME280;57767;42.068;24.752;2024-01-15T00:56:02;98419.72;;;-2.33;77.46
70343;BME280;57767;42.068;24.752;2024-01-15T00:57:04;98423.22;;;-2.25;77.85
70343;BME280;57767;42.068;24.752;2024-01-15T00:58:06;98427.31;;;-2.22;77.94
70343;BME280;57767;42.068;24.752;2024-01-15T00:59:08;98417.09;;;-2.24;77.70
70343;BME280;57767;42.068;24.752;2024-01-15T01:00:12;98424.03;;;-2.24;77.51
70343;BME280;57767;42.068;24.752;2024-01-15T01:01:14;98418.19;;;-2.26;77.70
70343;BME280;57767;42.068;24.752;2024-01-15T01:02:15;98426.38;;;-2.21;77.28
70343;BME280;57767;42.068;24.752;2024-01-15T01:03:17;98420.66;;;-2.25;77.49
70343;BME280;57767;42.068;24.752;2024-01-15T01:04:19;98420.50;;;-2.23;77.38
70343;BME280;57767;42.068;24.752;2024-01-15T01:05:21;98409.47;;;-2.25;77.28
70343;BME280;57767;42.068;24.752;2024-01-15T01:06:22;98415.06;;;-2.20;77.36
70343;BME280;57767;42.068;24.752;2024-01-15T01:07:24;98410.44;;;-2.26;77.01
70343;BME280;57767;42.068;24.752;2024-01-15T01:08:26;98410.44;;;-2.26;77.55
70343;BME280;57767;42.068;24.752;2024-01-15T01:09:27;98412.75;;;-2.23;77.74
70343;BME280;57767;42.068;24.752;2024-01-15T01:10:31;98403.38;;;-2.24;77.52
70343;BME280;57767;42.068;24.752;2024-01-15T01:11:33;98416.97;;;-2.22;77.23
70343;BME280;57767;42.068;24.752;2024-01-15T01:12:34;98408.66;;;-2.26;77.35
70343;BME280;57767;42.068;24.752;2024-01-15T01:13:36;98415.06;;;-2.20;76.98
70343;BME280;57767;42.068;24.752;2024-01-15T01:14:38;98420.25;;;-2.20;77.10
70343;BME280;57767;42.068;24.752;2024-01-15T01:15:39;98406.91;;;-2.25;77.62
70343;BME280;57767;42.068;24.752;2024-01-15T01:16:41;98410.44;;;-2.26;77.47
70343;BME280;57767;42.068;24.752;2024-01-15T01:17:43;98405.25;;;-2.26;77.51
70343;BME280;57767;42.068;24.752;2024-01-15T01:18:45;98401.19;;;-2.19;77.66
70343;BME280;57767;42.068;24.752;2024-01-15T01:19:47;98408.38;;;-2.13;77.61
70343;BME280;57767;42.068;24.752;2024-01-15T01:20:49;98397.34;;;-2.15;77.12
70343;BME280;57767;42.068;24.752;2024-01-15T01:21:50;98399.53;;;-2.10;77.11
70343;BME280;57767;42.068;24.752;2024-01-15T01:22:52;98397.66;;;-2.18;76.65
70343;BME280;57767;42.068;24.752;2024-01-15T01:23:54;98393.28;;;-2.18;76.64
70343;BME280;57767;42.068;24.752;2024-01-15T01:24:55;98404.16;;;-2.14;76.73
70343;BME280;57767;42.068;24.752;2024-01-15T01:25:57;98391.78;;;-2.10;76.99
70343;BME280;57767;42.068;24.752;2024-01-15T01:26:59;98398.44;;;-2.08;76.91
70343;BME280;57767;42.068;24.752;2024-01-15T01:28:00;98393.66;;;-2.12;76.59
70343;BME280;57767;42.068;24.752;2024-01-15T01:29:02;98385.09;;;-2.13;76.40
70343;BME280;57767;42.068;24.752;2024-01-15T01:30:04;98391.63;;;-2.09;76.01
70343;BME280;57767;42.068;24.752;2024-01-15T01:31:06;98396.00;;;-2.09;75.76
70343;BME280;57767;42.068;24.752;2024-01-15T01:32:09;98398.97;;;-2.14;75.76
70343;BME280;57767;42.068;24.752;2024-01-15T01:33:11;98393.81;;;-2.14;75.66
70343;BME280;57767;42.068;24.752;2024-01-15T01:34:14;98396.69;;;-2.17;75.27
70343;BME280;57767;42.068;24.752;2024-01-15T01:35:16;98396.00;;;-2.19;75.46
70343;BME280;57767;42.068;24.752;2024-01-15T01:36:18;98389.22;;;-2.20;75.55
70343;BME280;57767;42.068;24.752;2024-01-15T01:37:20;98384.84;;;-2.20;75.26
70343;BME280;57767;42.068;24.752;2024-01-15T01:38:21;98378.06;;;-2.30;75.03
70343;BME280;57767;42.068;24.752;2024-01-15T01:39:23;98390.44;;;-2.34;74.96
70343;BME280;57767;42.068;24.752;2024-01-15T01:40:25;98379.31;;;-2.44;75.53
70343;BME280;57767;42.068;24.752;2024-01-15T01:41:26;98375.34;;;-2.38;76.06
70343;BME280;57767;42.068;24.752;2024-01-15T01:42:28;98390.31;;;-2.32;75.72
70343;BME280;57767;42.068;24.752;2024-01-15T01:43:30;98377.78;;;-2.37;75.52
70343;BME280;57767;42.068;24.752;2024-01-15T01:44:31;98382.13;;;-2.28;75.19
70343;BME280;57767;42.068;24.752;2024-01-15T01:45:33;98385.16;;;-2.32;75.68
70343;BME280;57767;42.068;24.752;2024-01-15T01:46:36;98373.19;;;-2.43;75.51
70343;BME280;57767;42.068;24.752;2024-01-15T01:47:42;98390.06;;;-2.29;75.41
70343;BME280;57767;42.068;24.752;2024-01-15T01:48:43;98382.13;;;-2.28;75.61
70343;BME280;57767;42.068;24.752;2024-01-15T01:49:46;98391.13;;;-2.22;75.31
70343;BME280;57767;42.068;24.752;2024-01-15T01:50:48;98393.44;;;-2.19;75.12
70343;BME280;57767;42.068;24.752;2024-01-15T01:51:50;98392.34;;;-2.17;74.60
70343;BME280;57767;42.068;24.752;2024-01-15T01:52:52;98392.84;;;-2.13;74.38
70343;BME280;57767;42.068;24.752;2024-01-15T01:53:54;98398.72;;;-2.11;74.65
70343;BME280;57767;42.068;24.752;2024-01-15T01:54:56;98395.16;;;-2.10;74.35
70343;BME280;57767;42.068;24.752;2024-01-15T01:55:58;98393.28;;;-2.08;74.51
70343;BME280;57767;42.068;24.752;2024-01-15T01:57:02;98387.28;;;-2.08;74.01
70343;BME280;57767;42.068;24.752;2024-01-15T01:58:05;98386.19;;;-2.06;74.09
70343;BME280;57767;42.068;24.752;2024-01-15T01:59:09;98378.84;;;-2.10;74.29
70343;BME280;57767;42.068;24.752;2024-01-15T02:00:12;98393.28;;;-2.08;73.67
70343;BME280;57767;42.068;24.752;2024-01-15T02:01:15;98394.75;;;-2.05;73.65
70343;BME280;57767;42.068;24.752;2024-01-15T02:02:18;98393.00;;;-2.05;73.88
70343;BME280;57767;42.068;24.752;2024-01-15T02:03:20;98384.00;;;-2.10;74.06
70343;BME280;57767;42.068;24.752;2024-01-15T02:04:24;98371.47;;;-2.15;74.45
70343;BME280;57767;42.068;24.752;2024-01-15T02:05:26;98377.75;;;-2.08;73.99
70343;BME280;57767;42.068;24.752;2024-01-15T02:06:28;98376.78;;;-2.07;73.76
70343;BME280;57767;42.068;24.752;2024-01-15T02:07:31;98373.66;;;-2.10;74.33
70343;BME280;57767;42.068;24.752;2024-01-15T02:08:33;98385.22;;;-2.05;74.04
70343;BME280;57767;42.068;24.752;2024-01-15T02:09:36;98373.53;;;-2.09;73.99
70343;BME280;57767;42.068;24.752;2024-01-15T02:10:38;98376.78;;;-2.07;74.33
70343;BME280;57767;42.068;24.752;2024-01-15T02:11:39;98381.00;;;-2.06;74.01
70343;BME280;57767;42.068;24.752;2024-01-15T02:12:42;98381.00;;;-2.06;74.39
70343;BME280;57767;42.068;24.752;2024-01-15T02:13:44;98379.09;;;-2.04;74.48
70343;BME280;57767;42.068;24.752;2024-01-15T02:14:46;98380.06;;;-2.14;75.01
70343;BME280;57767;42.068;24.752;2024-01-15T02:15:47;98390.28;;;-2.13;75.60
70343;BME280;57767;42.068;24.752;2024-01-15T02:16:49;98390.56;;;-2.16;75.31
70343;BME280;57767;42.068;24.752;2024-01-15T02:18:59;98383.63;;;-2.15;75.89
70343;BME280;57767;42.068;24.752;2024-01-15T02:20:01;98381.19;;;-2.17;75.85
70343;BME280;57767;42.068;24.752;2024-01-15T02:21:03;98381.19;;;-2.17;75.65
70343;BME280;57767;42.068;24.752;2024-01-15T02:22:05;98382.81;;;-2.16;75.83
70343;BME280;57767;42.068;24.752;2024-01-15T02:24:08;98390.69;;;-2.08;75.64
70343;BME280;57767;42.068;24.752;2024-01-15T02:25:10;98396.25;;;-2.12;75.84
70343;BME280;57767;42.068;24.752;2024-01-15T02:26:12;98384.84;;;-2.20;75.92
70343;BME280;57767;42.068;24.752;2024-01-15T02:27:13;98387.56;;;-2.21;76.26
70343;BME280;57767;42.068;24.752;2024-01-15T02:28:17;98391.13;;;-2.22;76.58
70343;BME280;57767;42.068;24.752;2024-01-15T02:29:19;98382.66;;;-2.24;76.61
70343;BME280;57767;42.068;24.752;2024-01-15T02:30:21;98392.34;;;-2.26;76.49
70343;BME280;57767;42.068;24.752;2024-01-15T02:31:23;98390.44;;;-2.24;76.64
70343;BME280;57767;42.068;24.752;2024-01-15T02:32:25;98376.81;;;-2.26;76.43
70343;BME280;57767;42.068;24.752;2024-01-15T02:33:27;98378.44;;;-2.25;76.50
70343;BME280;57767;42.068;24.752;2024-01-15T02:34:31;98374.91;;;-2.24;76.51
70343;BME280;57767;42.068;24.752;2024-01-15T02:35:34;98380.50;;;-2.19;76.41
70343;BME280;57767;42.068;24.752;2024-01-15T02:36:37;98378.72;;;-2.19;76.29
70343;BME280;57767;42.068;24.752;2024-01-15T02:37:39;98384.03;;;-2.20;76.21
70343;BME280;57767;42.068;24.752;2024-01-15T02:38:41;98382.66;;;-2.24;76.51
70343;BME280;57767;42.068;24.752;2024-01-15T02:39:42;98367.03;;;-2.32;76.09
70343;BME280;57767;42.068;24.752;2024-01-15T02:40:45;98373.03;;;-2.32;75.83
70343;BME280;57767;42.068;24.752;2024-01-15T02:41:46;98375.88;;;-2.35;75.83
70343;BME280;57767;42.068;24.752;2024-01-15T02:42:48;98380.94;;;-2.33;75.86
70343;BME280;57767;42.068;24.752;2024-01-15T02:43:50;98379.03;;;-2.31;76.29
70343;BME280;57767;42.068;24.752;2024-01-15T02:44:51;98382.56;;;-2.32;76.18
70343;BME280;57767;42.068;24.752;2024-01-15T02:45:53;98378.34;;;-2.33;76.47
70343;BME280;57767;42.068;24.752;2024-01-15T02:46:55;98373.59;;;-2.28;76.30
70343;BME280;57767;42.068;24.752;2024-01-15T02:47:56;98369.06;;;-2.26;76.11
70343;BME280;57767;42.068;24.752;2024-01-15T02:48:58;98366.88;;;-2.21;75.82
70343;BME280;57767;42.068;24.752;2024-01-15T02:50:00;98368.53;;;-2.20;75.91
70343;BME280;57767;42.068;24.752;2024-01-15T02:51:01;98355.47;;;-2.28;76.96
70343;BME280;57767;42.068;24.752;2024-01-15T02:52:03;98359.44;;;-2.43;77.68
70343;BME280;57767;42.068;24.752;2024-01-15T02:53:05;98362.31;;;-2.46;78.26
70343;BME280;57767;42.068;24.752;2024-01-15T02:54:06;98360.94;;;-2.41;78.50
70343;BME280;57767;42.068;24.752;2024-01-15T02:55:08;98362.00;;;-2.34;78.23
70343;BME280;57767;42.068;24.752;2024-01-15T02:56:10;98366.09;;;-2.31;77.99
70343;BME280;57767;42.068;24.752;2024-01-15T02:57:11;98371.00;;;-2.28;78.17
70343;BME280;57767;42.068;24.752;2024-01-15T02:58:14;98367.16;;;-2.24;77.84
70343;BME280;57767;42.068;24.752;2024-01-15T02:59:15;98369.75;;;-2.24;77.47
70343;BME280;57767;42.068;24.752;2024-01-15T03:00:17;98361.03;;;-2.23;77.47
70343;BME280;57767;42.068;24.752;2024-01-15T03:01:19;98373.56;;;-2.19;77.23
70343;BME280;57767;42.068;24.752;2024-01-15T03:02:26;98370.97;;;-2.19;76.96
70343;BME280;57767;42.068;24.752;2024-01-15T03:03:28;98373.69;;;-2.20;76.90
70343;BME280;57767;42.068;24.752;2024-01-15T03:04:30;98369.38;;;-2.29;76.95
70343;BME280;57767;42.068;24.752;2024-01-15T03:05:32;98368.53;;;-2.30;77.24
70343;BME280;57767;42.068;24.752;2024-01-15T03:06:33;98368.81;;;-2.33;77.57
70343;BME280;57767;42.068;24.752;2024-01-15T03:07:35;98366.78;;;-2.29;77.53
70343;BME280;57767;42.068;24.752;2024-01-15T03:08:37;98367.72;;;-2.30;77.63
70343;BME280;57767;42.068;24.752;2024-01-15T03:09:38;98362.56;;;-2.30;76.78
70343;BME280;57767;42.068;24.752;2024-01-15T03:10:40;98368.53;;;-2.30;76.90
70343;BME280;57767;42.068;24.752;2024-01-15T03:11:42;98369.63;;;-2.32;76.54
70343;BME280;57767;42.068;24.752;2024-01-15T03:12:44;98364.84;;;-2.27;76.05
70343;BME280;57767;42.068;24.752;2024-01-15T03:13:45;98366.22;;;-2.23;76.08
70343;BME280;57767;42.068;24.752;2024-01-15T03:14:47;98357.09;;;-2.18;75.54
70343;BME280;57767;42.068;24.752;2024-01-15T03:15:49;98362.78;;;-2.14;75.88
70343;BME280;57767;42.068;24.752;2024-01-15T03:16:51;98357.78;;;-2.15;75.60
70343;BME280;57767;42.068;24.752;2024-01-15T03:17:52;98362.78;;;-2.14;75.87
70343;BME280;57767;42.068;24.752;2024-01-15T03:18:54;98359.38;;;-2.14;75.57
70343;BME280;57767;42.068;24.752;2024-01-15T03:19:56;98367.94;;;-2.14;75.69
70343;BME280;57767;42.068;24.752;2024-01-15T03:20:58;98357.50;;;-2.22;75.46
70343;BME280;57767;42.068;24.752;2024-01-15T03:21:59;98360.91;;;-2.22;75.69
70343;BME280;57767;42.068;24.752;2024-01-15T03:23:02;98362.41;;;-2.19;75.35
70343;BME280;57767;42.068;24.752;2024-01-15T03:24:04;98357.91;;;-2.17;75.36
70343;BME280;57767;42.068;24.752;2024-01-15T03:25:06;98357.59;;;-2.14;75.38
70343;BME280;57767;42.068;24.752;2024-01-15T03:26:08;98351.63;;;-2.14;75.15
70343;BME280;57767;42.068;24.752;2024-01-15T03:27:09;98347.25;;;-2.14;74.86
70343;BME280;57767;42.068;24.752;2024-01-15T03:28:11;98335.72;;;-2.20;74.98
70343;BME280;57767;42.068;24.752;2024-01-15T03:29:12;98349.19;;;-2.16;74.82
70343;BME280;57767;42.068;24.752;2024-01-15T03:30:14;98347.56;;;-2.17;75.14
70343;BME280;57767;42.068;24.752;2024-01-15T03:31:16;98354.50;;;-2.18;74.96
70343;BME280;57767;42.068;24.752;2024-01-15T03:32:17;98349.47;;;-2.19;74.48
70343;BME280;57767;42.068;24.752;2024-01-15T03:33:20;98359.38;;;-2.14;74.47
70343;BME280;57767;42.068;24.752;2024-01-15T03:34:22;98355.97;;;-2.15;74.82
70343;BME280;57767;42.068;24.752;2024-01-15T03:35:24;98349.19;;;-2.16;75.06
70343;BME280;57767;42.068;24.752;2024-01-15T03:36:30;98351.09;;;-2.18;74.38
70343;BME280;57767;42.068;24.752;2024-01-15T03:37:32;98338.84;;;-2.26;74.41
70343;BME280;57767;42.068;24.752;2024-01-15T03:38:33;98349.47;;;-2.19;74.24
70343;BME280;57767;42.068;24.752;2024-01-15T03:39:35;98345.69;;;-2.34;74.62
70343;BME280;57767;42.068;24.752;2024-01-15T03:40:37;98350.84;;;-2.34;75.44
70343;BME280;57767;42.068;24.752;2024-01-15T03:41:39;98326.09;;;-2.46;75.40
70343;BME280;57767;42.068;24.752;2024-01-15T03:42:40;98342.41;;;-2.36;75.25
70343;BME280;57767;42.068;24.752;2024-01-15T03:43:42;98352.47;;;-2.33;75.25
70343;BME280;57767;42.068;24.752;2024-01-15T03:44:43;98340.25;;;-2.41;75.70
70343;BME280;57767;42.068;24.752;2024-01-15T03:45:45;98350.31;;;-2.38;75.49
70343;BME280;57767;42.068;24.752;2024-01-15T03:46:47;98349.63;;;-2.40;75.81
70343;BME280;57767;42.068;24.752;2024-01-15T03:47:48;98348.81;;;-2.40;75.79
70343;BME280;57767;42.068;24.752;2024-01-15T03:48:50;98351.00;;;-2.45;75.81
70343;BME280;57767;42.068;24.752;2024-01-15T03:49:52;98350.31;;;-2.47;75.92
70343;BME280;57767;42.068;24.752;2024-01-15T03:50:54;98351.97;;;-2.46;76.12
70343;BME280;57767;42.068;24.752;2024-01-15T03:51:55;98359.31;;;-2.42;75.76
70343;BME280;57767;42.068;24.752;2024-01-15T03:52:57;98363.38;;;-2.39;75.86
70343;BME280;57767;42.068;24.752;2024-01-15T03:53:59;98370.16;;;-2.38;76.09
70343;BME280;57767;42.068;24.752;2024-01-15T03:55:00;98366.38;;;-2.34;75.51
70343;BME280;57767;42.068;24.752;2024-01-15T03:56:02;98359.81;;;-2.38;75.37
70343;BME280;57767;42.068;24.752;2024-01-15T03:57:04;98362.00;;;-2.34;75.15
70343;BME280;57767;42.068;24.752;2024-01-15T03:58:05;98357.78;;;-2.35;75.14
70343;BME280;57767;42.068;24.752;2024-01-15T03:59:07;98361.31;;;-2.26;75.25
70343;BME280;57767;42.068;24.752;2024-01-15T04:00:09;98353.16;;;-2.31;75.55
70343;BME280;57767;42.068;24.752;2024-01-15T04:01:11;98359.84;;;-2.29;76.04
70343;BME280;57767;42.068;24.752;2024-01-15T04:02:13;98354.94;;;-2.32;76.13
70343;BME280;57767;42.068;24.752;2024-01-15T04:03:15;98363.38;;;-2.30;76.31
70343;BME280;57767;42.068;24.752;2024-01-15T04:04:18;98358.19;;;-2.30;75.76
70343;BME280;57767;42.068;24.752;2024-01-15T04:05:20;98340.41;;;-2.42;75.57
70343;BME280;57767;42.068;24.752;2024-01-15T04:06:22;98359.28;;;-2.32;75.71
70343;BME280;57767;42.068;24.752;2024-01-15T04:07:24;98359.03;;;-2.29;75.86
70343;BME280;57767;42.068;24.752;2024-01-15T04:08:25;98351.41;;;-2.31;75.72
70343;BME280;57767;42.068;24.752;2024-01-15T04:09:27;98355.47;;;-2.28;75.56
70343;BME280;57767;42.068;24.752;2024-01-15T04:10:29;98354.50;;;-2.27;75.30
70343;BME280;57767;42.068;24.752;2024-01-15T04:11:30;98352.06;;;-2.29;75.54
70343;BME280;57767;42.068;24.752;2024-01-15T04:12:32;98356.56;;;-2.31;75.62
70343;BME280;57767;42.068;24.752;2024-01-15T04:13:33;98352.75;;;-2.36;75.62
70343;BME280;57767;42.068;24.752;2024-01-15T04:14:35;98295.91;;;-2.65;75.04
70343;BME280;57767;42.068;24.752;2024-01-15T04:15:37;98355.75;;;-2.31;75.16
70343;BME280;57767;42.068;24.752;2024-01-15T04:16:39;98367.44;;;-2.27;75.44
70343;BME280;57767;42.068;24.752;2024-01-15T04:17:40;98354.66;;;-2.29;75.24
70343;BME280;57767;42.068;24.752;2024-01-15T04:18:42;98351.25;;;-2.29;75.47
70343;BME280;57767;42.068;24.752;2024-01-15T04:19:44;98333.28;;;-2.40;74.97
70343;BME280;57767;42.068;24.752;2024-01-15T04:20:46;98356.13;;;-2.26;74.86
70343;BME280;57767;42.068;24.752;2024-01-15T04:21:48;98356.28;;;-2.28;74.75
70343;BME280;57767;42.068;24.752;2024-01-15T04:22:49;98357.38;;;-2.30;74.74
70343;BME280;57767;42.068;24.752;2024-01-15T04:23:51;98357.94;;;-2.36;74.73
70343;BME280;57767;42.068;24.752;2024-01-15T04:24:52;98351.81;;;-2.35;74.68
70343;BME280;57767;42.068;24.752;2024-01-15T04:25:54;98355.06;;;-2.33;74.28
70343;BME280;57767;42.068;24.752;2024-01-15T04:26:56;98358.47;;;-2.33;74.31
70343;BME280;57767;42.068;24.752;2024-01-15T04:27:57;98344.03;;;-2.35;73.71
70343;BME280;57767;42.068;24.752;2024-01-15T04:28:59;98344.31;;;-2.38;73.53
70343;BME280;57767;42.068;24.752;2024-01-15T04:30:01;98349.22;;;-2.35;73.36
70343;BME280;57767;42.068;24.752;2024-01-15T04:31:02;98346.38;;;-2.42;73.83
70343;BME280;57767;42.068;24.752;2024-01-15T04:32:04;98346.38;;;-2.42;74.09
70343;BME280;57767;42.068;24.752;2024-01-15T04:33:06;98341.47;;;-2.45;74.53
70343;BME280;57767;42.068;24.752;2024-01-15T04:34:08;98337.97;;;-2.54;74.99
70343;BME280;57767;42.068;24.752;2024-01-15T04:35:10;98340.81;;;-2.57;75.23
70343;BME280;57767;42.068;24.752;2024-01-15T04:36:11;98335.50;;;-2.65;75.79
70343;BME280;57767;42.068;24.752;2024-01-15T04:37:13;98341.91;;;-2.69;75.91
70343;BME280;57767;42.068;24.752;2024-01-15T04:38:15;98331.97;;;-2.73;75.98
70343;BME280;57767;42.068;24.752;2024-01-15T04:39:16;98340.81;;;-2.76;75.79
70343;BME280;57767;42.068;24.752;2024-01-15T04:40:18;98332.69;;;-2.81;75.68
70343;BME280;57767;42.068;24.752;2024-01-15T04:41:20;98331.72;;;-2.80;75.87
70343;BME280;57767;42.068;24.752;2024-01-15T04:42:21;98334.16;;;-2.88;75.68
70343;BME280;57767;42.068;24.752;2024-01-15T04:43:23;98319.06;;;-3.02;76.08
70343;BME280;57767;42.068;24.752;2024-01-15T04:44:24;98324.66;;;-2.97;76.30
70343;BME280;57767;42.068;24.752;2024-01-15T04:45:26;98323.84;;;-3.07;76.45
70343;BME280;57767;42.068;24.752;2024-01-15T04:46:30;98320.81;;;-3.12;76.55
70343;BME280;57767;42.068;24.752;2024-01-15T04:47:31;98326.94;;;-3.13;77.07
70343;BME280;57767;42.068;24.752;2024-01-15T04:48:33;98329.13;;;-3.09;77.16
70343;BME280;57767;42.068;24.752;2024-01-15T04:49:35;98306.53;;;-3.16;76.96
70343;BME280;57767;42.068;24.752;2024-01-15T04:50:37;98318.94;;;-3.10;77.15
70343;BME280;57767;42.068;24.752;2024-01-15T04:51:38;98320.44;;;-3.08;76.82
70343;BME280;57767;42.068;24.752;2024-01-15T04:52:40;98307.91;;;-3.12;76.88
70343;BME280;57767;42.068;24.752;2024-01-15T04:53:41;98313.50;;;-3.17;76.73
70343;BME280;57767;42.068;24.752;2024-01-15T04:54:43;98310.09;;;-3.17;76.29
70343;BME280;57767;42.068;24.752;2024-01-15T04:55:44;98325.59;;;-3.08;76.25
70343;BME280;57767;42.068;24.752;2024-01-15T04:56:46;98315.97;;;-3.06;76.38
70343;BME280;57767;42.068;24.752;2024-01-15T04:57:48;98306.84;;;-3.10;76.42
70343;BME280;57767;42.068;24.752;2024-01-15T04:58:50;98312.53;;;-3.16;77.07
70343;BME280;57767;42.068;24.752;2024-01-15T04:59:51;98309.56;;;-3.11;77.45
70343;BME280;57767;42.068;24.752;2024-01-15T05:00:53;98308.22;;;-3.06;77.34
70343;BME280;57767;42.068;24.752;2024-01-15T05:01:56;98318.41;;;-3.04;77.22
70343;BME280;57767;42.068;24.752;2024-01-15T05:02:58;98319.75;;;-3.00;77.38
70343;BME280;57767;42.068;24.752;2024-01-15T05:03:59;98318.94;;;-3.01;77.26
70343;BME280;57767;42.068;24.752;2024-01-15T05:05:01;98309.16;;;-2.97;77.01
70343;BME280;57767;42.068;24.752;2024-01-15T05:06:03;98311.34;;;-2.93;76.81
70343;BME280;57767;42.068;24.752;2024-01-15T05:07:05;98302.34;;;-2.98;76.87
70343;BME280;57767;42.068;24.752;2024-01-15T05:08:06;98302.09;;;-2.95;76.96
70343;BME280;57767;42.068;24.752;2024-01-15T05:09:08;98309.28;;;-2.89;77.07
70343;BME280;57767;42.068;24.752;2024-01-15T05:10:10;98310.09;;;-2.89;77.15
70343;BME280;57767;42.068;24.752;2024-01-15T05:11:11;98314.03;;;-2.84;77.06
70343;BME280;57767;42.068;24.752;2024-01-15T05:12:13;98307.66;;;-2.80;76.94
70343;BME280;57767;42.068;24.752;2024-01-15T05:13:15;98312.00;;;-2.81;76.57
70343;BME280;57767;42.068;24.752;2024-01-15T05:14:16;98313.63;;;-2.80;76.03
70343;BME280;57767;42.068;24.752;2024-01-15T05:15:18;98307.09;;;-2.84;75.94
70343;BME280;57767;42.068;24.752;2024-01-15T05:16:20;98306.03;;;-2.81;75.66
70343;BME280;57767;42.068;24.752;2024-01-15T05:17:21;98305.22;;;-2.82;75.70
70343;BME280;57767;42.068;24.752;2024-01-15T05:18:23;98308.47;;;-2.80;75.39
70343;BME280;57767;42.068;24.752;2024-01-15T05:19:25;98291.06;;;-2.88;75.46
70343;BME280;57767;42.068;24.752;2024-01-15T05:20:27;98296.63;;;-2.82;75.72
70343;BME280;57767;42.068;24.752;2024-01-15T05:21:28;98295.41;;;-2.78;75.52
70343;BME280;57767;42.068;24.752;2024-01-15T05:22:30;98297.84;;;-2.77;75.46
70343;BME280;57767;42.068;24.752;2024-01-15T05:23:31;98294.03;;;-2.73;75.46
70343;BME280;57767;42.068;24.752;2024-01-15T05:24:33;98289.56;;;-2.71;75.30
70343;BME280;57767;42.068;24.752;2024-01-15T05:25:34;98289.41;;;-2.69;75.06